Terminal Aerodrome Forecast
Issued by NWS

Home | Current Version | Previous Version | Text Only | Print | Product List | Glossary On
Versions: 1 2 3 4 5 6 7 8 9 10 11 12 13 14 15 16 17 18 19 20 21
448
FTUS46 KEKA 222335
TAFCEC
TAF
KCEC 222335Z 2300/2324 01013G20KT P6SM SKC
     FM230300 35014G24KT 6SM HZ SKC
     FM230800 36010G16KT 5SM BR FEW005
     FM231500 15008KT 1SM BR SCT003
     FM232100 17007KT P6SM SKC=

USA.gov is the U.S. government's official web portal to all federal, state and local government web resources and services.